Time,TemperatureF,DewpointF,PressureIn,WindDirection,WindDirectionDegrees,WindSpeedMPH,WindSpeedGustMPH,Humidity,HourlyPrecipIn,Conditions,Clouds,dailyrainin,SoftwareType,DateUTC
2013-01-05 00:02:00,36.5,23.1,30.15,NW,322,2.0,2.0,58,0.00,,,0.00,Wunderground v.1.15,2013-01-05 05:02:00,
2013-01-05 00:07:00,36.5,23.1,30.15,North,350,2.0,2.0,58,0.00,,,0.00,Wunderground v.1.15,2013-01-05 05:07:00,
2013-01-05 00:16:00,36.5,19.1,30.15,NNW,344,2.0,2.0,49,0.00,,,0.00,Wunderground v.1.15,2013-01-05 05:16:00,
2013-01-05 00:26:00,36.3,18.9,30.15,West,276,1.0,1.0,49,0.00,,,0.00,Wunderground v.1.15,2013-01-05 05:26:00,
2013-01-05 00:32:00,36.2,18.9,30.15,West,275,1.0,1.0,49,0.00,,,0.00,Wunderground v.1.15,2013-01-05 05:32:00,
2013-01-05 00:37:00,35.9,18.6,30.15,West,275,0.0,0.0,49,0.00,,,0.00,Wunderground v.1.15,2013-01-05 05:37:00,
2013-01-05 00:42:00,35.9,19.0,30.15,West,275,0.0,0.0,50,0.00,,,0.00,Wunderground v.1.15,2013-01-05 05:42:00,
2013-01-05 00:52:00,35.5,18.7,30.15,West,275,1.0,2.0,50,0.00,,,0.00,Wunderground v.1.15,2013-01-05 05:52:00,
2013-01-05 01:02:00,35.9,18.6,30.14,WNW,284,2.0,2.0,49,0.00,,,0.00,Wunderground v.1.15,2013-01-05 06:02:00,
2013-01-05 01:07:00,36.0,18.7,30.14,NNW,343,2.0,2.0,49,0.00,,,0.00,Wunderground v.1.15,2013-01-05 06:07:00,
2013-01-05 01:16:00,36.3,18.9,30.15,WNW,299,2.0,2.0,49,0.00,,,0.00,Wunderground v.1.15,2013-01-05 06:16:00,
2013-01-05 01:22:00,36.5,18.6,30.15,WNW,302,3.0,5.0,48,0.00,,,0.00,Wunderground v.1.15,2013-01-05 06:22:00,
2013-01-05 01:32:00,36.6,18.7,30.15,NW,317,1.0,1.0,48,0.00,,,0.00,Wunderground v.1.15,2013-01-05 06:32:00,
2013-01-05 01:42:00,36.3,18.5,30.15,West,263,1.0,1.0,48,0.00,,,0.00,Wunderground v.1.15,2013-01-05 06:42:00,
2013-01-05 01:52:00,35.9,18.6,30.16,West,269,0.0,0.0,49,0.00,,,0.00,Wunderground v.1.15,2013-01-05 06:52:00,
2013-01-05 02:02:00,36.0,18.7,30.17,NNW,340,2.0,2.0,49,0.00,,,0.00,Wunderground v.1.15,2013-01-05 07:02:00,
2013-01-05 02:12:00,36.4,23.0,30.17,WNW,295,2.0,2.0,58,0.00,,,0.00,Wunderground v.1.15,2013-01-05 07:12:00,
2013-01-05 02:22:00,36.5,22.7,30.17,West,279,2.0,3.0,57,0.00,,,0.00,Wunderground v.1.15,2013-01-05 07:22:00,
2013-01-05 02:32:00,36.4,22.6,30.18,North,355,1.0,3.0,57,0.00,,,0.00,Wunderground v.1.15,2013-01-05 07:32:00,
2013-01-05 02:37:00,36.3,22.9,30.18,NNW,348,1.0,1.0,58,0.00,,,0.00,Wunderground v.1.15,2013-01-05 07:37:00,
2013-01-05 02:42:00,36.2,22.8,30.19,NW,314,1.0,1.0,58,0.00,,,0.00,Wunderground v.1.15,2013-01-05 07:42:00,
2013-01-05 02:52:00,36.0,22.6,30.18,West,272,1.0,3.0,58,0.00,,,0.00,Wunderground v.1.15,2013-01-05 07:52:00,
2013-01-05 03:02:00,35.7,22.4,30.20,West,261,1.0,1.0,58,0.00,,,0.00,Wunderground v.1.15,2013-01-05 08:02:00,
2013-01-05 03:12:00,35.7,22.8,30.20,WNW,290,1.0,1.0,59,0.00,,,0.00,Wunderground v.1.15,2013-01-05 08:12:00,
2013-01-05 03:22:00,35.6,22.7,30.21,West,271,1.0,2.0,59,0.00,,,0.00,Wunderground v.1.15,2013-01-05 08:22:00,
2013-01-05 03:32:00,35.4,22.5,30.21,West,281,1.0,3.0,59,0.00,,,0.00,Wunderground v.1.15,2013-01-05 08:32:00,
2013-01-05 03:42:00,35.2,22.7,30.21,West,281,0.0,1.0,60,0.00,,,0.00,Wunderground v.1.15,2013-01-05 08:42:00,
2013-01-05 03:52:00,35.5,23.0,30.22,West,259,1.0,4.0,60,0.00,,,0.00,Wunderground v.1.15,2013-01-05 08:52:00,
2013-01-05 04:02:00,35.7,22.8,30.22,WNW,284,1.0,1.0,59,0.00,,,0.00,Wunderground v.1.15,2013-01-05 09:02:00,
2013-01-05 04:07:00,35.6,23.1,30.23,WNW,284,0.0,1.0,60,0.00,,,0.00,Wunderground v.1.15,2013-01-05 09:07:00,
2013-01-05 04:16:00,34.6,22.5,30.23,West,281,1.0,1.0,61,0.00,,,0.00,Wunderground v.1.15,2013-01-05 09:16:00,
2013-01-05 04:22:00,34.3,22.6,30.23,West,281,0.0,0.0,62,0.00,,,0.00,Wunderground v.1.15,2013-01-05 09:22:00,
2013-01-05 04:32:00,33.7,22.4,30.24,West,281,0.0,4.0,63,0.00,,,0.00,Wunderground v.1.15,2013-01-05 09:32:00,
2013-01-05 04:42:00,33.5,22.2,30.24,West,281,0.0,0.0,63,0.00,,,0.00,Wunderground v.1.15,2013-01-05 09:42:00,
2013-01-05 04:52:00,33.3,22.4,30.24,NW,311,0.0,2.0,64,0.00,,,0.00,Wunderground v.1.15,2013-01-05 09:52:00,
2013-01-05 05:02:00,32.8,22.3,30.24,NW,309,0.0,3.0,65,0.00,,,0.00,Wunderground v.1.15,2013-01-05 10:02:00,
2013-01-05 05:07:00,32.3,22.2,30.25,NW,309,0.0,3.0,66,0.00,,,0.00,Wunderground v.1.15,2013-01-05 10:07:00,
2013-01-05 05:16:00,31.9,22.2,30.25,NW,308,0.0,0.0,67,0.00,,,0.00,Wunderground v.1.15,2013-01-05 10:16:00,
2013-01-05 05:22:00,31.9,22.2,30.25,NW,304,0.0,0.0,67,0.00,,,0.00,Wunderground v.1.15,2013-01-05 10:22:00,
2013-01-05 05:32:00,31.7,22.3,30.26,NW,304,0.0,0.0,68,0.00,,,0.00,Wunderground v.1.15,2013-01-05 10:32:00,
2013-01-05 05:42:00,30.7,21.7,30.27,NW,304,0.0,0.0,69,0.00,,,0.00,Wunderground v.1.15,2013-01-05 10:42:00,
2013-01-05 05:52:00,30.2,21.6,30.28,NW,304,0.0,0.0,70,0.00,,,0.00,Wunderground v.1.15,2013-01-05 10:52:00,
2013-01-05 06:02:00,29.8,21.5,30.29,NW,304,0.0,0.0,71,0.00,,,0.00,Wunderground v.1.15,2013-01-05 11:02:00,
2013-01-05 06:07:00,29.5,21.3,30.29,NW,304,0.0,0.0,71,0.00,,,0.00,Wunderground v.1.15,2013-01-05 11:07:00,
2013-01-05 06:16:00,29.2,21.3,30.29,NW,304,0.0,0.0,72,0.00,,,0.00,Wunderground v.1.15,2013-01-05 11:16:00,
2013-01-05 06:22:00,29.0,21.4,30.30,NW,304,0.0,0.0,73,0.00,,,0.00,Wunderground v.1.15,2013-01-05 11:22:00,
2013-01-05 06:32:00,28.9,21.3,30.30,NW,304,0.0,0.0,73,0.00,,,0.00,Wunderground v.1.15,2013-01-05 11:32:00,
2013-01-05 06:42:00,28.8,21.6,30.31,NW,304,0.0,0.0,74,0.00,,,0.00,Wunderground v.1.15,2013-01-05 11:42:00,
2013-01-05 06:52:00,28.6,21.4,30.31,NW,304,0.0,0.0,74,0.00,,,0.00,Wunderground v.1.15,2013-01-05 11:52:00,
2013-01-05 07:02:00,28.3,21.4,30.32,NW,304,0.0,0.0,75,0.00,,,0.00,Wunderground v.1.15,2013-01-05 12:02:00,
2013-01-05 07:07:00,28.2,21.6,30.32,NW,304,0.0,0.0,76,0.00,,,0.00,Wunderground v.1.15,2013-01-05 12:07:00,
2013-01-05 07:16:00,27.9,21.3,30.32,NW,304,0.0,0.0,76,0.00,,,0.00,Wunderground v.1.15,2013-01-05 12:16:00,
2013-01-05 07:22:00,27.7,21.4,30.32,NW,304,0.0,0.0,77,0.00,,,0.00,Wunderground v.1.15,2013-01-05 12:22:00,
2013-01-05 07:32:00,27.6,21.3,30.32,NW,304,0.0,0.0,77,0.00,,,0.00,Wunderground v.1.15,2013-01-05 12:32:00,
2013-01-05 07:37:00,27.6,21.6,30.33,NW,304,0.0,0.0,78,0.00,,,0.00,Wunderground v.1.15,2013-01-05 12:37:00,
2013-01-05 07:42:00,27.7,21.7,30.33,NW,304,0.0,0.0,78,0.00,,,0.00,Wunderground v.1.15,2013-01-05 12:42:00,
2013-01-05 07:52:00,28.4,22.4,30.33,NW,304,1.0,2.0,78,0.00,,,0.00,Wunderground v.1.15,2013-01-05 12:52:00,
2013-01-05 08:02:00,29.6,23.0,30.33,NW,305,1.0,1.0,76,0.00,,,0.00,Wunderground v.1.15,2013-01-05 13:02:00,
2013-01-05 08:07:00,30.2,22.9,30.33,NNW,345,1.0,1.0,74,0.00,,,0.00,Wunderground v.1.15,2013-01-05 13:07:00,
2013-01-05 08:16:00,31.0,23.4,30.34,NNW,345,0.0,0.0,73,0.00,,,0.00,Wunderground v.1.15,2013-01-05 13:16:00,
2013-01-05 08:22:00,31.4,23.4,30.34,NNW,345,0.0,0.0,72,0.00,,,0.00,Wunderground v.1.15,2013-01-05 13:22:00,
2013-01-05 08:32:00,32.1,24.1,30.35,NNW,345,0.0,0.0,72,0.00,,,0.00,Wunderground v.1.15,2013-01-05 13:32:00,
2013-01-05 08:37:00,32.3,24.3,30.35,NNW,345,0.0,0.0,72,0.00,,,0.00,Wunderground v.1.15,2013-01-05 13:37:00,
2013-01-05 08:46:00,33.0,24.3,30.36,NNW,344,0.0,0.0,70,0.00,,,0.00,Wunderground v.1.15,2013-01-05 13:46:00,
2013-01-05 08:52:00,33.7,24.3,30.36,NNW,343,1.0,2.0,68,0.00,,,0.00,Wunderground v.1.15,2013-01-05 13:52:00,
2013-01-05 09:02:00,35.0,24.8,30.37,NNW,335,2.0,2.0,66,0.00,,,0.00,Wunderground v.1.15,2013-01-05 14:02:00,
2013-01-05 09:07:00,35.5,24.9,30.37,WNW,300,2.0,2.0,65,0.00,,,0.00,Wunderground v.1.15,2013-01-05 14:07:00,
2013-01-05 09:16:00,36.2,25.2,30.37,NNW,332,2.0,2.0,64,0.00,,,0.00,Wunderground v.1.15,2013-01-05 14:16:00,
2013-01-05 09:22:00,36.6,25.2,30.37,NNW,338,2.0,3.0,63,0.00,,,0.00,Wunderground v.1.15,2013-01-05 14:22:00,
2013-01-05 09:32:00,37.2,25.4,30.38,NNW,335,1.0,3.0,62,0.00,,,0.00,Wunderground v.1.15,2013-01-05 14:32:00,
2013-01-05 09:37:00,37.5,25.3,30.38,NNW,342,3.0,4.0,61,0.00,,,0.00,Wunderground v.1.15,2013-01-05 14:37:00,
2013-01-05 09:42:00,37.7,25.5,30.38,NNE,15,4.0,9.0,61,0.00,,,0.00,Wunderground v.1.15,2013-01-05 14:42:00,
2013-01-05 09:52:00,37.9,25.2,30.37,North,355,5.0,5.0,60,0.00,,,0.00,Wunderground v.1.15,2013-01-05 14:52:00,
2013-01-05 10:02:00,38.4,26.1,30.38,West,263,4.0,4.0,61,0.00,,,0.00,Wunderground v.1.15,2013-01-05 15:02:00,
2013-01-05 10:12:00,38.8,25.7,30.38,NNW,347,3.0,4.0,59,0.00,,,0.00,Wunderground v.1.15,2013-01-05 15:12:00,
2013-01-05 10:22:00,38.9,25.8,30.39,NNW,345,3.0,4.0,59,0.00,,,0.00,Wunderground v.1.15,2013-01-05 15:22:00,
2013-01-05 10:32:00,39.3,26.2,30.38,North,355,2.0,4.0,59,0.00,,,0.00,Wunderground v.1.15,2013-01-05 15:32:00,
2013-01-05 10:42:00,39.4,25.8,30.38,North,355,2.0,4.0,58,0.00,,,0.00,Wunderground v.1.15,2013-01-05 15:42:00,
2013-01-05 10:52:00,39.8,26.2,30.39,NNW,333,1.0,3.0,58,0.00,,,0.00,Wunderground v.1.15,2013-01-05 15:52:00,
2013-01-05 11:02:00,40.2,26.2,30.38,North,355,2.0,2.0,57,0.00,,,0.00,Wunderground v.1.15,2013-01-05 16:02:00,
2013-01-05 11:12:00,40.6,26.5,30.38,North,355,2.0,3.0,57,0.00,,,0.00,Wunderground v.1.15,2013-01-05 16:12:00,
2013-01-05 11:22:00,41.0,26.9,30.37,North,360,2.0,5.0,57,0.00,,,0.00,Wunderground v.1.15,2013-01-05 16:22:00,
2013-01-05 11:32:00,41.1,26.6,30.36,NNE,25,3.0,3.0,56,0.00,,,0.00,Wunderground v.1.15,2013-01-05 16:32:00,
2013-01-05 11:37:00,41.0,26.5,30.36,NNE,27,3.0,3.0,56,0.00,,,0.00,Wunderground v.1.15,2013-01-05 16:37:00,
2013-01-05 11:42:00,41.5,27.0,30.36,NW,321,2.0,4.0,56,0.00,,,0.00,Wunderground v.1.15,2013-01-05 16:42:00,
2013-01-05 11:52:00,42.3,27.7,30.36,NNW,338,1.0,2.0,56,0.00,,,0.00,Wunderground v.1.15,2013-01-05 16:52:00,
2013-01-05 12:02:00,42.9,27.8,30.35,NNW,336,1.0,1.0,55,0.00,,,0.00,Wunderground v.1.15,2013-01-05 17:02:00,
2013-01-05 12:12:00,43.4,27.4,30.35,North,355,1.0,1.0,53,0.00,,,0.00,Wunderground v.1.15,2013-01-05 17:12:00,
2013-01-05 12:22:00,43.6,27.6,30.34,NNE,18,2.0,2.0,53,0.00,,,0.00,Wunderground v.1.15,2013-01-05 17:22:00,
2013-01-05 12:32:00,43.5,27.5,30.33,NNE,25,2.0,2.0,53,0.00,,,0.00,Wunderground v.1.15,2013-01-05 17:32:00,
2013-01-05 12:37:00,43.7,28.1,30.33,NNE,26,2.0,3.0,54,0.00,,,0.00,Wunderground v.1.15,2013-01-05 17:37:00,
2013-01-05 12:46:00,43.9,27.9,30.32,NNW,343,3.0,3.0,53,0.00,,,0.00,Wunderground v.1.15,2013-01-05 17:46:00,
2013-01-05 12:52:00,44.2,28.1,30.32,NNW,328,1.0,3.0,53,0.00,,,0.00,Wunderground v.1.15,2013-01-05 17:52:00,
2013-01-05 13:02:00,44.7,28.1,30.32,North,11,2.0,2.0,52,0.00,,,0.00,Wunderground v.1.15,2013-01-05 18:02:00,
2013-01-05 13:07:00,44.3,27.8,30.32,North,5,3.0,3.0,52,0.00,,,0.00,Wunderground v.1.15,2013-01-05 18:07:00,
2013-01-05 13:12:00,44.1,27.6,30.31,North,5,2.0,2.0,52,0.00,,,0.00,Wunderground v.1.15,2013-01-05 18:12:00,
2013-01-05 13:22:00,43.6,29.8,30.31,South,183,2.0,2.0,58,0.00,,,0.00,Wunderground v.1.15,2013-01-05 18:22:00,
2013-01-05 13:32:00,43.0,30.1,30.30,SE,128,2.0,2.0,60,0.00,,,0.00,Wunderground v.1.15,2013-01-05 18:32:00,
2013-01-05 13:37:00,42.6,30.1,30.31,ESE,117,2.0,4.0,61,0.00,,,0.00,Wunderground v.1.15,2013-01-05 18:37:00,
2013-01-05 13:46:00,41.2,29.5,30.30,SSE,147,3.0,3.0,63,0.00,,,0.00,Wunderground v.1.15,2013-01-05 18:46:00,
2013-01-05 13:52:00,40.9,30.0,30.30,ESE,113,2.0,2.0,65,0.00,,,0.00,Wunderground v.1.15,2013-01-05 18:52:00,
2013-01-05 14:02:00,40.9,29.3,30.30,ESE,116,2.0,2.0,63,0.00,,,0.00,Wunderground v.1.15,2013-01-05 19:02:00,
2013-01-05 14:12:00,40.9,29.3,30.30,ESE,116,1.0,2.0,63,0.00,,,0.00,Wunderground v.1.15,2013-01-05 19:12:00,
2013-01-05 14:22:00,40.7,28.7,30.30,ESE,117,1.0,2.0,62,0.00,,,0.00,Wunderground v.1.15,2013-01-05 19:22:00,
2013-01-05 14:32:00,40.7,29.1,30.30,ESE,119,2.0,4.0,63,0.00,,,0.00,Wunderground v.1.15,2013-01-05 19:32:00,
2013-01-05 14:42:00,40.8,28.8,30.30,ESE,118,2.0,3.0,62,0.00,,,0.00,Wunderground v.1.15,2013-01-05 19:42:00,
2013-01-05 14:52:00,40.8,28.0,30.30,ESE,121,2.0,2.0,60,0.00,,,0.00,Wunderground v.1.15,2013-01-05 19:52:00,
2013-01-05 15:02:00,41.0,29.7,30.30,SSE,155,1.0,1.0,64,0.00,,,0.00,Wunderground v.1.15,2013-01-05 20:02:00,
2013-01-05 15:07:00,40.9,29.7,30.30,SSE,156,2.0,2.0,64,0.00,,,0.00,Wunderground v.1.15,2013-01-05 20:07:00,
2013-01-05 15:16:00,40.8,29.6,30.30,SSE,151,1.0,2.0,64,0.00,,,0.00,Wunderground v.1.15,2013-01-05 20:16:00,
2013-01-05 15:22:00,40.6,29.4,30.30,SSE,154,2.0,4.0,64,0.00,,,0.00,Wunderground v.1.15,2013-01-05 20:22:00,
2013-01-05 15:32:00,40.5,29.7,30.30,SSE,154,0.0,0.0,65,0.00,,,0.00,Wunderground v.1.15,2013-01-05 20:32:00,
2013-01-05 15:37:00,40.3,29.1,30.30,SSE,155,1.0,3.0,64,0.00,,,0.00,Wunderground v.1.15,2013-01-05 20:37:00,
2013-01-05 15:46:00,40.2,29.4,30.31,SSE,155,1.0,2.0,65,0.00,,,0.00,Wunderground v.1.15,2013-01-05 20:46:00,
2013-01-05 15:52:00,40.2,29.4,30.31,SSE,161,1.0,4.0,65,0.00,,,0.00,Wunderground v.1.15,2013-01-05 20:52:00,
2013-01-05 16:02:00,40.0,29.6,30.30,SSE,164,1.0,1.0,66,0.00,,,0.00,Wunderground v.1.15,2013-01-05 21:02:00,
2013-01-05 16:12:00,40.0,29.6,30.30,SSE,164,0.0,0.0,66,0.00,,,0.00,Wunderground v.1.15,2013-01-05 21:12:00,
2013-01-05 16:22:00,39.7,28.9,30.30,SSE,164,0.0,0.0,65,0.00,,,0.00,Wunderground v.1.15,2013-01-05 21:22:00,
2013-01-05 16:32:00,39.5,29.1,30.30,SSE,164,0.0,0.0,66,0.00,,,0.00,Wunderground v.1.15,2013-01-05 21:32:00,
2013-01-05 16:42:00,39.0,29.0,30.29,SSE,164,0.0,0.0,67,0.00,,,0.00,Wunderground v.1.15,2013-01-05 21:42:00,
2013-01-05 16:52:00,38.6,28.9,30.30,SSE,164,0.0,0.0,68,0.00,,,0.00,Wunderground v.1.15,2013-01-05 21:52:00,
2013-01-05 17:02:00,38.3,29.4,30.30,SSE,164,1.0,1.0,70,0.00,,,0.00,Wunderground v.1.15,2013-01-05 22:02:00,
2013-01-05 17:07:00,38.2,29.6,30.30,SSE,164,0.0,2.0,71,0.00,,,0.00,Wunderground v.1.15,2013-01-05 22:07:00,
2013-01-05 17:12:00,38.0,29.8,30.30,SSE,164,1.0,1.0,72,0.00,,,0.00,Wunderground v.1.15,2013-01-05 22:12:00,
2013-01-05 17:22:00,37.5,29.3,30.30,SSE,164,0.0,0.0,72,0.00,,,0.00,Wunderground v.1.15,2013-01-05 22:22:00,
2013-01-05 17:32:00,36.9,29.4,30.30,SSE,164,0.0,0.0,74,0.00,,,0.00,Wunderground v.1.15,2013-01-05 22:32:00,
2013-01-05 17:42:00,36.4,29.2,30.30,SSE,164,0.0,0.0,75,0.00,,,0.00,Wunderground v.1.15,2013-01-05 22:42:00,
2013-01-05 17:52:00,35.9,29.1,30.30,SSE,164,0.0,0.0,76,0.00,,,0.00,Wunderground v.1.15,2013-01-05 22:52:00,
2013-01-05 18:02:00,35.4,28.6,30.30,SSE,164,0.0,0.0,76,0.00,,,0.00,Wunderground v.1.15,2013-01-05 23:02:00,
2013-01-05 18:12:00,34.6,28.1,30.28,SSE,164,0.0,0.0,77,0.00,,,0.00,Wunderground v.1.15,2013-01-05 23:12:00,
2013-01-05 18:22:00,34.4,28.9,30.30,SSE,164,0.0,0.0,80,0.00,,,0.00,Wunderground v.1.15,2013-01-05 23:22:00,
2013-01-05 18:32:00,34.5,29.0,30.30,SSE,164,0.0,0.0,80,0.00,,,0.00,Wunderground v.1.15,2013-01-05 23:32:00,
2013-01-05 18:37:00,34.4,28.9,30.29,SSE,164,0.0,0.0,80,0.00,,,0.00,Wunderground v.1.15,2013-01-05 23:37:00,
2013-01-05 18:42:00,34.7,29.2,30.29,SSE,164,0.0,0.0,80,0.00,,,0.00,Wunderground v.1.15,2013-01-05 23:42:00,
2013-01-05 18:52:00,34.6,29.1,30.28,SSE,164,0.0,0.0,80,0.00,,,0.00,Wunderground v.1.15,2013-01-05 23:52:00,
2013-01-05 19:02:00,34.4,28.9,30.28,SSE,164,0.0,0.0,80,0.00,,,0.00,Wunderground v.1.15,2013-01-06 00:02:00,
2013-01-05 19:12:00,34.4,29.5,30.28,SSE,164,0.0,0.0,82,0.00,,,0.00,Wunderground v.1.15,2013-01-06 00:12:00,
2013-01-05 19:26:00,34.6,29.7,30.27,SSE,164,0.0,0.0,82,0.00,,,0.00,Wunderground v.1.15,2013-01-06 00:26:00,
2013-01-05 19:32:00,34.6,29.7,30.27,SSE,164,0.0,0.0,82,0.00,,,0.00,Wunderground v.1.15,2013-01-06 00:32:00,
2013-01-05 19:37:00,34.7,29.8,30.28,SSE,164,0.0,0.0,82,0.00,,,0.00,Wunderground v.1.15,2013-01-06 00:37:00,
2013-01-05 19:42:00,34.7,30.1,30.28,SSE,164,0.0,0.0,83,0.00,,,0.00,Wunderground v.1.15,2013-01-06 00:42:00,
2013-01-05 19:52:00,34.9,30.3,30.28,SSE,164,0.0,0.0,83,0.00,,,0.00,Wunderground v.1.15,2013-01-06 00:52:00,
2013-01-05 20:02:00,35.2,30.6,30.27,SSE,164,0.0,0.0,83,0.00,,,0.00,Wunderground v.1.15,2013-01-06 01:02:00,
2013-01-05 20:07:00,35.3,30.4,30.26,SSE,164,0.0,0.0,82,0.00,,,0.00,Wunderground v.1.15,2013-01-06 01:07:00,
2013-01-05 20:16:00,35.3,30.7,30.26,SSE,164,0.0,0.0,83,0.00,,,0.00,Wunderground v.1.15,2013-01-06 01:16:00,
2013-01-05 20:22:00,35.4,30.8,30.27,SSE,164,0.0,0.0,83,0.00,,,0.00,Wunderground v.1.15,2013-01-06 01:22:00,
2013-01-05 20:32:00,35.4,30.8,30.26,SSE,164,0.0,0.0,83,0.00,,,0.00,Wunderground v.1.15,2013-01-06 01:32:00,
2013-01-05 20:42:00,35.7,31.0,30.26,SSE,164,0.0,0.0,83,0.00,,,0.00,Wunderground v.1.15,2013-01-06 01:42:00,
2013-01-05 20:52:00,35.9,31.2,30.26,SSE,164,0.0,0.0,83,0.00,,,0.00,Wunderground v.1.15,2013-01-06 01:52:00,
2013-01-05 21:02:00,36.1,31.7,30.27,SSE,164,0.0,1.0,84,0.00,,,0.00,Wunderground v.1.15,2013-01-06 02:02:00,
2013-01-05 21:12:00,36.2,31.8,30.26,SSE,164,0.0,1.0,84,0.00,,,0.00,Wunderground v.1.15,2013-01-06 02:12:00,
2013-01-05 21:22:00,36.6,32.2,30.26,SSE,164,2.0,2.0,84,0.00,,,0.00,Wunderground v.1.15,2013-01-06 02:22:00,
2013-01-05 21:32:00,37.3,32.6,30.25,SSE,165,1.0,2.0,83,0.00,,,0.00,Wunderground v.1.15,2013-01-06 02:32:00,
2013-01-05 21:42:00,37.8,32.2,30.25,SSE,165,1.0,2.0,80,0.00,,,0.00,Wunderground v.1.15,2013-01-06 02:42:00,
2013-01-05 21:52:00,38.2,31.6,30.24,SSE,165,1.0,3.0,77,0.00,,,0.00,Wunderground v.1.15,2013-01-06 02:52:00,
2013-01-05 22:02:00,38.4,31.2,30.24,South,169,1.0,1.0,75,0.00,,,0.00,Wunderground v.1.15,2013-01-06 03:02:00,
2013-01-05 22:07:00,38.6,31.4,30.25,South,169,1.0,1.0,75,0.00,,,0.00,Wunderground v.1.15,2013-01-06 03:07:00,
2013-01-05 22:16:00,38.7,31.1,30.24,South,169,1.0,1.0,74,0.00,,,0.00,Wunderground v.1.15,2013-01-06 03:16:00,
2013-01-05 22:22:00,38.9,31.6,30.24,South,169,0.0,0.0,75,0.00,,,0.00,Wunderground v.1.15,2013-01-06 03:22:00,
2013-01-05 22:32:00,38.8,31.6,30.24,South,169,0.0,0.0,75,0.00,,,0.00,Wunderground v.1.15,2013-01-06 03:32:00,
2013-01-05 22:37:00,38.7,31.1,30.25,South,169,0.0,1.0,74,0.00,,,0.00,Wunderground v.1.15,2013-01-06 03:37:00,
2013-01-05 22:42:00,38.7,31.1,30.25,South,169,0.0,0.0,74,0.00,,,0.00,Wunderground v.1.15,2013-01-06 03:42:00,
2013-01-05 22:52:00,38.7,31.1,30.26,South,169,0.0,1.0,74,0.00,,,0.00,Wunderground v.1.15,2013-01-06 03:52:00,
2013-01-05 23:02:00,38.8,30.9,30.25,South,173,1.0,2.0,73,0.00,,,0.00,Wunderground v.1.15,2013-01-06 04:02:00,
2013-01-05 23:07:00,38.9,31.0,30.25,South,173,1.0,2.0,73,0.00,,,0.00,Wunderground v.1.15,2013-01-06 04:07:00,
2013-01-05 23:12:00,38.9,31.0,30.25,South,191,2.0,2.0,73,0.00,,,0.00,Wunderground v.1.15,2013-01-06 04:12:00,
2013-01-05 23:22:00,39.0,31.1,30.25,South,188,2.0,2.0,73,0.00,,,0.00,Wunderground v.1.15,2013-01-06 04:22:00,
2013-01-05 23:32:00,39.0,31.7,30.24,SSW,199,1.0,5.0,75,0.00,,,0.00,Wunderground v.1.15,2013-01-06 04:32:00,
2013-01-05 23:37:00,39.0,31.7,30.24,SSW,194,1.0,5.0,75,0.00,,,0.00,Wunderground v.1.15,2013-01-06 04:37:00,
2013-01-05 23:46:00,39.1,31.8,30.23,SSW,194,1.0,2.0,75,0.00,,,0.00,Wunderground v.1.15,2013-01-06 04:46:00,
2013-01-05 23:52:00,39.0,32.1,30.22,SSW,194,1.0,3.0,76,0.00,,,0.00,Wunderground v.1.15,2013-01-06 04:52:00,